createdAt,value
2022-12-18T00:01:06.034Z,16.23
2022-12-18T00:03:35.506Z,17.10
2022-12-18T00:06:02.176Z,16.88
2022-12-18T00:10:55.457Z,18.45
2022-12-18T00:13:28.217Z,16.27
2022-12-18T00:15:54.705Z,18.55
2022-12-18T00:18:23.224Z,15.70
2022-12-18T00:20:49.584Z,17.73
2022-12-18T00:23:15.913Z,17.67
2022-12-18T00:25:42.263Z,20.50
2022-12-18T00:28:08.572Z,18.10
2022-12-18T00:30:34.909Z,19.92
2022-12-18T00:33:01.216Z,18.95
2022-12-18T00:35:27.575Z,16.60
2022-12-18T00:37:53.968Z,19.50
2022-12-18T00:40:20.335Z,18.15
2022-12-18T00:42:46.651Z,17.33
2022-12-18T00:45:13.456Z,14.45
2022-12-18T00:47:40.466Z,17.67
2022-12-18T00:50:07.478Z,17.70
2022-12-18T00:52:33.837Z,18.05
2022-12-18T00:55:05.881Z,17.38
2022-12-18T00:57:32.731Z,18.20
2022-12-18T00:59:59.051Z,18.95
2022-12-18T01:02:25.406Z,17.77
2022-12-18T01:04:51.922Z,16.45
2022-12-18T01:07:18.296Z,17.50
2022-12-18T01:09:45.387Z,17.40
2022-12-18T01:12:11.757Z,14.98
2022-12-18T01:14:38.160Z,16.83
2022-12-18T01:17:05.294Z,17.95
2022-12-18T01:19:31.625Z,15.95
2022-12-18T01:21:58.427Z,16.00
2022-12-18T01:24:25.032Z,16.67
2022-12-18T01:26:51.348Z,15.75
2022-12-18T01:29:17.672Z,15.32
2022-12-18T01:31:44.093Z,15.93
2022-12-18T01:34:10.617Z,15.23
2022-12-18T01:36:40.469Z,15.45
2022-12-18T01:39:12.240Z,16.70
2022-12-18T01:41:39.034Z,14.82
2022-12-18T01:44:44.191Z,15.27
2022-12-18T01:47:16.700Z,14.95
2022-12-18T01:49:43.055Z,14.65
2022-12-18T01:52:09.486Z,15.57
2022-12-18T01:54:35.980Z,15.80
2022-12-18T01:57:02.356Z,14.50
2022-12-18T01:59:30.165Z,15.15
2022-12-18T02:01:57.452Z,16.33
2022-12-18T02:04:27.483Z,16.17
2022-12-18T02:07:11.921Z,15.95
2022-12-18T02:09:49.251Z,14.98
2022-12-18T02:12:24.900Z,14.43
2022-12-18T02:15:30.016Z,15.55
2022-12-18T02:18:12.049Z,15.10
2022-12-18T02:21:17.272Z,14.88
2022-12-18T02:24:05.265Z,14.40
2022-12-18T02:26:39.766Z,14.68
2022-12-18T02:29:12.812Z,15.23
2022-12-18T02:32:00.112Z,13.35
2022-12-18T02:34:31.354Z,14.02
2022-12-18T02:37:00.906Z,15.60
2022-12-18T02:39:30.042Z,15.98
2022-12-18T02:41:57.574Z,14.25
2022-12-18T02:44:23.919Z,14.98
2022-12-18T02:46:53.027Z,13.90
2022-12-18T02:49:58.724Z,14.88
2022-12-18T02:52:49.443Z,13.55
2022-12-18T02:55:24.937Z,13.52
2022-12-18T02:57:57.823Z,13.15
2022-12-18T03:00:32.633Z,13.65
2022-12-18T03:03:04.862Z,14.50
2022-12-18T03:05:37.455Z,14.05
2022-12-18T03:08:11.221Z,15.25
2022-12-18T03:10:49.353Z,16.13
2022-12-18T03:13:29.286Z,14.35
2022-12-18T03:15:57.972Z,15.90
2022-12-18T03:18:30.881Z,15.35
2022-12-18T03:21:01.299Z,15.15
2022-12-18T03:23:33.506Z,15.30
2022-12-18T03:26:07.482Z,14.82
2022-12-18T03:28:40.112Z,13.85
2022-12-18T03:31:10.758Z,12.32
2022-12-18T03:33:53.870Z,14.02
2022-12-18T03:36:20.409Z,14.57
2022-12-18T03:38:47.022Z,13.45
2022-12-18T03:41:34.150Z,13.00
2022-12-18T03:44:30.876Z,13.60
2022-12-18T03:47:03.117Z,11.18
2022-12-18T03:49:37.556Z,13.77
2022-12-18T03:52:09.872Z,12.07
2022-12-18T03:54:37.946Z,12.20
2022-12-18T03:57:23.844Z,12.02
2022-12-18T03:59:58.181Z,13.98
2022-12-18T04:02:25.223Z,14.38
2022-12-18T04:04:58.282Z,13.30
2022-12-18T04:07:25.328Z,12.48
2022-12-18T04:09:56.573Z,10.82
2022-12-18T04:12:26.245Z,11.75
2022-12-18T04:14:52.827Z,12.15
2022-12-18T04:17:19.165Z,13.52
2022-12-18T04:19:45.500Z,13.43
2022-12-18T04:22:12.154Z,13.70
2022-12-18T04:27:05.398Z,11.63
2022-12-18T04:29:32.766Z,11.88
2022-12-18T04:31:59.147Z,11.75
2022-12-18T04:34:25.732Z,12.10
2022-12-18T04:36:52.042Z,12.25
2022-12-18T04:39:18.401Z,13.40
2022-12-18T04:41:44.777Z,13.02
2022-12-18T04:44:11.117Z,12.55
2022-12-18T04:46:37.469Z,12.52
2022-12-18T04:49:03.902Z,13.43
2022-12-18T04:51:30.294Z,12.48
2022-12-18T04:53:56.630Z,12.50
2022-12-18T04:56:22.971Z,9.98
2022-12-18T04:58:49.366Z,11.75
2022-12-18T05:01:17.827Z,11.57
2022-12-18T05:03:44.914Z,11.23
2022-12-18T05:06:11.900Z,11.98
2022-12-18T05:08:38.464Z,12.70
2022-12-18T05:11:11.324Z,12.80
2022-12-18T05:13:38.575Z,11.57
2022-12-18T05:16:06.522Z,11.07
2022-12-18T05:18:33.314Z,12.07
2022-12-18T05:20:59.644Z,10.70
2022-12-18T05:23:26.166Z,11.05
2022-12-18T05:25:58.460Z,11.10
2022-12-18T05:28:27.245Z,11.70
2022-12-18T05:30:58.234Z,11.88
2022-12-18T05:33:26.618Z,12.90
2022-12-18T05:35:57.862Z,10.10
2022-12-18T05:38:26.154Z,13.30
2022-12-18T05:40:53.354Z,11.52
2022-12-18T05:43:21.742Z,11.02
2022-12-18T05:45:49.011Z,11.73
2022-12-18T05:48:16.023Z,10.73
2022-12-18T05:50:44.787Z,12.57
2022-12-18T05:53:11.120Z,13.27
2022-12-18T05:55:40.538Z,13.02
2022-12-18T05:58:08.561Z,11.65
2022-12-18T06:00:37.374Z,9.93
2022-12-18T06:03:03.885Z,10.27
2022-12-18T06:05:30.329Z,10.90
2022-12-18T06:07:56.701Z,11.23
2022-12-18T06:10:23.032Z,11.07
2022-12-18T06:12:49.356Z,10.82
2022-12-18T06:15:15.770Z,10.38
2022-12-18T06:17:43.216Z,8.52
2022-12-18T06:20:10.072Z,11.73
2022-12-18T06:22:36.535Z,9.23
2022-12-18T06:25:03.286Z,8.50
2022-12-18T06:29:55.909Z,10.30
2022-12-18T06:32:22.356Z,9.75
2022-12-18T06:34:48.698Z,10.85
2022-12-18T06:37:15.260Z,11.20
2022-12-18T06:39:41.582Z,11.90
2022-12-18T06:42:08.266Z,10.82
2022-12-18T06:44:34.837Z,11.85
2022-12-18T06:47:01.231Z,9.85
2022-12-18T06:49:30.570Z,9.57
2022-12-18T06:51:57.232Z,10.73
2022-12-18T06:54:23.629Z,11.23
2022-12-18T06:56:50.360Z,10.30
2022-12-18T06:59:17.517Z,10.73
2022-12-18T07:01:44.147Z,11.35
2022-12-18T07:04:10.612Z,10.27
2022-12-18T07:06:37.091Z,9.55
2022-12-18T07:11:29.835Z,10.57
2022-12-18T07:13:56.211Z,9.38
2022-12-18T07:16:25.666Z,10.65
2022-12-18T07:18:53.284Z,8.63
2022-12-18T07:21:20.819Z,6.45
2022-12-18T07:23:47.246Z,8.82
2022-12-18T07:26:15.136Z,9.85
2022-12-18T07:28:42.692Z,10.43
2022-12-18T07:31:12.007Z,10.07
2022-12-18T07:33:38.979Z,9.57
2022-12-18T07:36:08.141Z,7.88
2022-12-18T07:38:35.872Z,9.68
2022-12-18T07:41:03.663Z,10.15
2022-12-18T07:43:33.889Z,9.15
2022-12-18T07:46:00.292Z,10.20
2022-12-18T07:48:26.933Z,9.25
2022-12-18T07:50:53.493Z,8.88
2022-12-18T07:53:20.044Z,7.43
2022-12-18T07:56:17.900Z,7.70
2022-12-18T07:58:33.546Z,7.85
2022-12-18T08:01:07.833Z,6.53
2022-12-18T08:03:34.651Z,7.85
2022-12-18T08:06:05.657Z,7.00
2022-12-18T08:08:32.175Z,8.00
2022-12-18T08:10:59.270Z,10.60
2022-12-18T08:13:26.355Z,8.68
2022-12-18T08:16:03.930Z,8.18
2022-12-18T08:18:30.720Z,9.43
2022-12-18T08:20:57.089Z,9.68
2022-12-18T08:23:24.806Z,8.75
2022-12-18T08:25:53.898Z,9.15
2022-12-18T08:28:20.298Z,10.30
2022-12-18T08:30:46.701Z,9.75
2022-12-18T08:33:13.081Z,9.18
2022-12-18T08:35:45.439Z,8.30
2022-12-18T08:38:12.325Z,8.82
2022-12-18T08:40:38.673Z,8.18
2022-12-18T08:43:05.105Z,9.80
2022-12-18T08:45:31.432Z,8.38
2022-12-18T08:47:57.773Z,7.63
2022-12-18T08:50:24.131Z,8.75
2022-12-18T08:52:50.450Z,6.82
2022-12-18T08:55:16.960Z,8.85
2022-12-18T08:57:43.260Z,9.15
2022-12-18T09:00:11.142Z,7.60
2022-12-18T09:02:37.577Z,8.45
2022-12-18T09:05:04.211Z,8.18
2022-12-18T09:09:56.799Z,7.78
2022-12-18T09:12:23.099Z,8.07
2022-12-18T09:14:49.509Z,7.90
2022-12-18T09:17:15.901Z,8.85
2022-12-18T09:19:42.355Z,8.90
2022-12-18T09:22:08.669Z,9.15
2022-12-18T09:24:35.102Z,7.97
2022-12-18T09:27:01.604Z,7.93
2022-12-18T09:29:28.054Z,8.68
2022-12-18T09:31:54.343Z,7.05
2022-12-18T09:34:20.734Z,8.93
2022-12-18T09:36:49.087Z,7.90
2022-12-18T09:39:16.305Z,8.18
2022-12-18T09:41:52.971Z,7.82
2022-12-18T09:44:25.746Z,7.28
2022-12-18T09:47:05.661Z,7.38
2022-12-18T09:49:35.553Z,7.65
2022-12-18T09:52:30.112Z,7.25
2022-12-18T09:55:23.117Z,7.20
2022-12-18T09:57:54.426Z,7.32
2022-12-18T10:00:23.403Z,7.43
2022-12-18T10:02:52.978Z,6.97
2022-12-18T10:05:37.296Z,7.90
2022-12-18T10:08:14.589Z,7.55
2022-12-18T10:10:43.846Z,6.43
2022-12-18T10:13:30.370Z,6.57
2022-12-18T10:16:18.730Z,7.35
2022-12-18T10:19:16.969Z,6.70
2022-12-18T10:21:58.284Z,6.07
2022-12-18T10:24:42.027Z,6.70
2022-12-18T10:27:22.326Z,6.93
2022-12-18T10:29:48.984Z,6.20
2022-12-18T10:32:18.977Z,6.50
2022-12-18T10:34:49.675Z,6.25
2022-12-18T10:37:22.804Z,6.78
2022-12-18T10:42:33.644Z,5.55
2022-12-18T10:45:16.138Z,6.18
2022-12-18T10:47:46.987Z,6.53
2022-12-18T10:51:01.345Z,5.20
2022-12-18T10:53:22.078Z,5.57
2022-12-18T10:55:49.029Z,6.28
2022-12-18T10:58:33.697Z,5.65
2022-12-18T11:03:44.073Z,5.22
2022-12-18T11:06:22.418Z,5.30
2022-12-18T11:09:00.679Z,5.40
2022-12-18T11:11:27.679Z,5.25
2022-12-18T11:14:00.261Z,5.15
2022-12-18T11:18:53.620Z,5.10
2022-12-18T11:21:20.090Z,4.80
2022-12-18T11:23:54.385Z,5.22
2022-12-18T11:26:21.558Z,5.78
2022-12-18T11:29:08.801Z,4.72
2022-12-18T11:31:35.274Z,5.65
2022-12-18T11:34:30.048Z,5.65
2022-12-18T11:36:59.997Z,5.00
2022-12-18T11:39:36.883Z,5.07
2022-12-18T11:42:12.331Z,4.25
2022-12-18T11:44:50.361Z,5.80
2022-12-18T11:47:24.937Z,5.75
2022-12-18T11:49:52.719Z,4.70
2022-12-18T11:52:27.430Z,5.75
2022-12-18T11:54:58.967Z,5.60
2022-12-18T11:57:52.786Z,4.93
2022-12-18T12:00:21.072Z,4.22
2022-12-18T12:03:36.987Z,5.47
2022-12-18T12:06:09.319Z,5.82
2022-12-18T12:09:03.129Z,5.03
2022-12-18T12:11:45.251Z,5.32
2022-12-18T12:14:47.934Z,4.68
2022-12-18T12:20:13.405Z,5.22
2022-12-18T12:23:11.770Z,5.05
2022-12-18T12:25:44.147Z,5.30
2022-12-18T12:28:38.284Z,5.38
2022-12-18T12:31:23.313Z,5.75
2022-12-18T12:33:52.481Z,4.43
2022-12-18T12:36:37.261Z,5.07
2022-12-18T12:39:09.253Z,5.18
2022-12-18T12:44:09.133Z,5.05
2022-12-18T12:46:42.445Z,4.90
2022-12-18T12:49:16.522Z,4.78
2022-12-18T12:51:48.459Z,4.93
2022-12-18T12:54:20.500Z,5.38
2022-12-18T12:56:55.032Z,5.60
2022-12-18T12:59:51.448Z,5.25
2022-12-18T13:02:29.767Z,5.70
2022-12-18T13:05:15.631Z,5.55
2022-12-18T13:08:08.341Z,5.20
2022-12-18T13:10:42.761Z,3.58
2022-12-18T13:13:23.739Z,5.47
2022-12-18T13:16:20.205Z,5.53
2022-12-18T13:18:54.891Z,5.18
2022-12-18T13:21:27.954Z,4.88
2022-12-18T13:23:55.697Z,5.65
2022-12-18T13:26:29.029Z,5.70
2022-12-18T13:28:57.541Z,5.45
2022-12-18T13:31:42.194Z,5.63
2022-12-18T13:34:26.855Z,5.95
2022-12-18T13:36:56.645Z,5.40
2022-12-18T13:39:32.737Z,5.60
2022-12-18T13:42:06.739Z,6.32
2022-12-18T13:47:33.055Z,5.45
2022-12-18T13:50:01.496Z,5.05
2022-12-18T13:52:36.935Z,4.90
2022-12-18T13:55:15.605Z,4.82
2022-12-18T13:57:42.136Z,6.45
2022-12-18T14:02:52.304Z,5.25
2022-12-18T14:05:33.262Z,5.80
2022-12-18T14:08:04.259Z,5.60
2022-12-18T14:10:47.613Z,5.03
2022-12-18T14:13:27.845Z,5.70
2022-12-18T14:15:54.844Z,6.05
2022-12-18T14:18:25.364Z,5.78
2022-12-18T14:20:55.504Z,6.07
2022-12-18T14:23:43.021Z,5.95
2022-12-18T14:26:30.620Z,5.80
2022-12-18T14:29:21.965Z,6.07
2022-12-18T14:32:17.322Z,5.70
2022-12-18T14:34:49.850Z,5.82
2022-12-18T14:37:23.896Z,6.22
2022-12-18T14:40:03.183Z,6.25
2022-12-18T14:42:33.607Z,6.35
2022-12-18T14:45:41.440Z,6.05
2022-12-18T14:50:39.261Z,5.28
2022-12-18T14:55:49.697Z,5.85
2022-12-18T14:58:19.047Z,5.78
2022-12-18T15:00:45.564Z,5.57
2022-12-18T15:05:44.938Z,6.10
2022-12-18T15:08:47.213Z,5.80
2022-12-18T15:11:32.074Z,6.57
2022-12-18T15:13:59.305Z,4.60
2022-12-18T15:16:26.012Z,5.25
2022-12-18T15:18:54.047Z,6.25
2022-12-18T15:21:21.547Z,7.30
2022-12-18T15:23:51.452Z,5.78
2022-12-18T15:26:20.312Z,6.15
2022-12-18T15:28:51.929Z,6.18
2022-12-18T15:31:18.383Z,6.53
2022-12-18T15:33:51.108Z,6.07
2022-12-18T15:38:56.174Z,5.95
2022-12-18T15:41:33.759Z,6.05
2022-12-18T15:44:02.120Z,5.20
2022-12-18T15:46:28.534Z,6.95
2022-12-18T15:49:01.808Z,6.25
2022-12-18T15:51:36.159Z,6.50
2022-12-18T15:54:05.840Z,6.32
2022-12-18T15:56:32.268Z,5.85
2022-12-18T15:58:59.216Z,6.38
2022-12-18T16:01:47.039Z,6.15
2022-12-18T16:04:15.790Z,5.97
2022-12-18T16:07:12.561Z,5.95
2022-12-18T16:09:28.532Z,6.57
2022-12-18T16:11:54.918Z,5.90
2022-12-18T16:14:22.745Z,6.18
2022-12-18T16:16:53.532Z,6.45
2022-12-18T16:19:20.157Z,5.90
2022-12-18T16:21:48.069Z,6.93
2022-12-18T16:24:19.769Z,6.22
2022-12-18T16:26:46.253Z,6.75
2022-12-18T16:31:38.856Z,5.65
2022-12-18T16:34:20.163Z,6.07
2022-12-18T16:36:52.767Z,5.95
2022-12-18T16:39:19.220Z,6.35
2022-12-18T16:41:45.576Z,6.85
2022-12-18T16:44:11.929Z,7.55
2022-12-18T16:46:39.388Z,6.90
2022-12-18T16:49:05.932Z,6.55
2022-12-18T16:54:02.972Z,7.28
2022-12-18T16:56:33.170Z,6.82
2022-12-18T16:59:01.300Z,7.43
2022-12-18T17:01:29.916Z,8.07
2022-12-18T17:04:01.982Z,7.65
2022-12-18T17:06:30.788Z,6.85
2022-12-18T17:09:03.976Z,8.45
2022-12-18T17:11:32.748Z,7.18
2022-12-18T17:13:59.376Z,7.75
2022-12-18T17:16:26.595Z,7.53
2022-12-18T17:18:53.756Z,7.72
2022-12-18T17:21:20.167Z,8.05
2022-12-18T17:23:46.687Z,7.53
2022-12-18T17:28:40.627Z,7.40
2022-12-18T17:31:17.101Z,8.90
2022-12-18T17:33:44.201Z,8.48
2022-12-18T17:36:11.723Z,8.77
2022-12-18T17:38:38.708Z,9.15
2022-12-18T17:41:08.144Z,9.02
2022-12-18T17:43:35.382Z,7.43
2022-12-18T17:46:06.499Z,8.65
2022-12-18T17:48:34.805Z,8.35
2022-12-18T17:53:31.206Z,9.02
2022-12-18T17:55:58.740Z,8.10
2022-12-18T17:58:25.247Z,8.15
2022-12-18T18:03:17.999Z,8.57
2022-12-18T18:05:44.503Z,9.15
2022-12-18T18:08:10.877Z,8.63
2022-12-18T18:10:38.681Z,9.60
2022-12-18T18:13:17.540Z,8.65
2022-12-18T18:15:43.896Z,9.15
2022-12-18T18:18:10.281Z,8.38
2022-12-18T18:20:41.056Z,8.75
2022-12-18T18:23:07.453Z,8.88
2022-12-18T18:25:36.668Z,9.75
2022-12-18T18:28:03.317Z,10.43
2022-12-18T18:32:56.253Z,9.60
2022-12-18T18:35:52.364Z,8.32
2022-12-18T18:38:08.913Z,8.25
2022-12-18T18:40:35.260Z,8.70
2022-12-18T18:43:01.675Z,9.25
2022-12-18T18:45:29.173Z,9.40
2022-12-18T18:50:21.951Z,8.88
2022-12-18T18:55:22.328Z,9.40
2022-12-18T18:57:52.024Z,9.30
2022-12-18T19:02:45.553Z,10.23
2022-12-18T19:05:11.953Z,10.52
2022-12-18T19:07:38.268Z,10.27
2022-12-18T19:10:05.580Z,9.25
2022-12-18T19:12:32.766Z,10.68
2022-12-18T19:14:59.183Z,10.52
2022-12-18T19:17:29.690Z,10.10
2022-12-18T19:19:57.064Z,11.45
2022-12-18T19:22:23.987Z,10.25
2022-12-18T19:24:50.384Z,10.93
2022-12-18T19:27:16.758Z,9.77
2022-12-18T19:29:43.056Z,12.38
2022-12-18T19:32:09.434Z,10.02
2022-12-18T19:34:37.023Z,11.73
2022-12-18T19:37:03.924Z,9.55
2022-12-18T19:41:56.750Z,9.02
2022-12-18T19:46:52.450Z,9.63
2022-12-18T19:49:18.813Z,9.90
2022-12-18T19:51:45.872Z,10.57
2022-12-18T19:54:17.281Z,10.82
2022-12-18T19:56:44.035Z,9.07
2022-12-18T20:01:36.727Z,10.27
2022-12-18T20:04:03.400Z,10.10
2022-12-18T20:06:36.804Z,11.98
2022-12-18T20:09:06.137Z,9.57
2022-12-18T20:11:34.699Z,10.77
2022-12-18T20:14:08.376Z,11.38
2022-12-18T20:16:35.064Z,11.88
2022-12-18T20:19:02.181Z,10.20
2022-12-18T20:21:29.146Z,10.95
2022-12-18T20:23:55.873Z,12.40
2022-12-18T20:26:23.244Z,10.25
2022-12-18T20:28:49.671Z,11.30
2022-12-18T20:31:16.284Z,10.18
2022-12-18T20:36:17.600Z,9.98
2022-12-18T20:38:47.829Z,10.02
2022-12-18T20:41:19.000Z,11.52
2022-12-18T20:43:45.773Z,10.57
2022-12-18T20:46:14.711Z,10.50
2022-12-18T20:48:42.513Z,10.65
2022-12-18T20:51:12.441Z,11.48
2022-12-18T20:53:41.683Z,10.20
2022-12-18T20:56:21.592Z,10.98
2022-12-18T20:58:49.482Z,11.65
2022-12-18T21:01:18.961Z,11.45
2022-12-18T21:03:47.032Z,10.75
2022-12-18T21:06:15.059Z,12.50
2022-12-18T21:08:42.129Z,12.18
2022-12-18T21:11:21.727Z,11.57
2022-12-18T21:13:48.889Z,11.52
2022-12-18T21:16:15.233Z,12.15
2022-12-18T21:18:42.458Z,13.15
2022-12-18T21:23:35.203Z,12.57
2022-12-18T21:26:22.275Z,12.38
2022-12-18T21:28:53.347Z,13.20
2022-12-18T21:31:19.747Z,13.35
2022-12-18T21:36:14.673Z,13.10
2022-12-18T21:38:41.067Z,12.73
2022-12-18T21:41:08.853Z,11.93
2022-12-18T21:43:38.051Z,12.70
2022-12-18T21:46:04.498Z,13.70
2022-12-18T21:50:57.135Z,12.70
2022-12-18T21:53:23.447Z,12.68
2022-12-18T21:56:00.032Z,13.85
2022-12-18T21:58:26.909Z,13.63
2022-12-18T22:00:53.309Z,12.98
2022-12-18T22:03:19.724Z,13.07
2022-12-18T22:05:46.379Z,13.40
2022-12-18T22:08:15.973Z,12.23
2022-12-18T22:10:42.556Z,14.10
2022-12-18T22:13:09.163Z,13.02
2022-12-18T22:15:35.633Z,12.77
2022-12-18T22:18:02.020Z,12.40
2022-12-18T22:22:56.444Z,14.05
2022-12-18T22:25:22.739Z,12.23
2022-12-18T22:27:49.126Z,14.00
2022-12-18T22:30:15.703Z,14.10
2022-12-18T22:32:42.016Z,13.48
2022-12-18T22:35:14.323Z,15.55
2022-12-18T22:37:42.041Z,12.98
2022-12-18T22:40:23.545Z,13.18
2022-12-18T22:42:50.598Z,13.80
2022-12-18T22:45:19.291Z,14.05
2022-12-18T22:47:45.677Z,14.35
2022-12-18T22:50:13.772Z,13.38
2022-12-18T22:52:40.739Z,13.90
2022-12-18T22:55:07.547Z,13.98
2022-12-18T22:57:33.960Z,14.50
2022-12-18T23:00:01.765Z,13.70
2022-12-18T23:02:28.269Z,12.95
2022-12-18T23:04:54.757Z,14.98
2022-12-18T23:07:21.116Z,15.25
2022-12-18T23:09:48.359Z,13.32
2022-12-18T23:12:17.032Z,14.82
2022-12-18T23:14:44.035Z,12.98
2022-12-18T23:17:10.568Z,13.25
2022-12-18T23:19:37.130Z,14.55
2022-12-18T23:22:07.256Z,17.23
2022-12-18T23:24:36.443Z,14.00
2022-12-18T23:27:02.760Z,14.88
2022-12-18T23:29:32.111Z,15.68
2022-12-18T23:31:58.500Z,16.33
2022-12-18T23:34:24.881Z,13.32
2022-12-18T23:36:55.961Z,15.10
2022-12-18T23:39:29.315Z,16.30
2022-12-18T23:42:00.281Z,15.05
2022-12-18T23:44:27.423Z,12.90
2022-12-18T23:46:53.845Z,14.48
2022-12-18T23:49:20.225Z,13.90
2022-12-18T23:51:46.573Z,13.70
2022-12-18T23:54:12.891Z,13.43
2022-12-18T23:56:39.273Z,13.35
2022-12-18T23:59:05.616Z,15.35
